KDYS/DYS METAR and TAF weather

Enter ICAO airport designator
Station Type Date Time Source
KDYS METAR 2019/04/19 21:56 UTC NOAA

KDYS 192156Z AUTO 31008KT 10SM CLR 21/02 A3010 RMK AO2 SLP171 T02100018 $


Station Type Date Time Source
KDYS Decoded METAR 2019/04/19 21:56 UTC NOAA

Abilene, Dyess Air Force Base, TX, United States (KDYS) 32-25-12N 099-51-25W
Apr 19, 2019 - 05:56 PM EDT / 2019.04.19 2156 UTC
Wind: from the NW (310 degrees) at 9 MPH (8 KT):0
Visibility: 10 mile(s):0
Sky conditions: clear
Temperature: 69.8 F (21.0 C)
Dew Point: 35.2 F (1.8 C)
Relative Humidity: 27%
Pressure (altimeter): 30.1 in. Hg (1019 hPa)
ob: KDYS 192156Z AUTO 31008KT 10SM CLR 21/02 A3010 RMK AO2 SLP171 T02100018
cycle: 22

Station Type Date Time Source
KDYS TAF 2019/04/19 22:13 UTC NOAA

TAF KDYS 192200Z 1922/2104 33015G20KT 9999 SKC QNH3006INS
BECMG 2001/2002 VRB06KT 9999 SKC QNH3004INS
BECMG 2016/2017 21010G15KT 9999 SKC QNH2985INS TX29/2020Z TN10/2010Z

Example: see airport list